Lost Hills, California
Current Conditions -  °F | °C
As of 10:54 AM on Thursday 27 Nov 2014 (Local Time) from KBFL Reporting Station
Haze Haze  
Wind Chill: 62°   Ceiling: Unl
Heat Index: 62°   Visibility: 4mi
Dew Point: 45°   Wind: 3mph
Humidity: 53%   Direction: 200°SSW
Pressure: 30.17"   Gusts: NA
Location:  35.62°N, 119.7°W
Report Text: KBFL 271854Z 20003KT 4SM HZ CLR 17/07 A3017 RMK AO2 SLP214 T01670072
Loading
Personal Weather Stations






























Interactive Weather Map New forecast layout! Learn more

10-Day Weather Forecast

Advertisements
Track Severe Weather on mobile